createdAt,value
2018-10-17T00:01:17.086Z,35.53
2018-10-17T00:03:49.715Z,38.67
2018-10-17T00:06:22.889Z,48.10
2018-10-17T00:08:56.099Z,54.23
2018-10-17T00:11:28.575Z,51.60
2018-10-17T00:14:03.238Z,43.10
2018-10-17T00:16:36.034Z,40.37
2018-10-17T00:19:09.130Z,40.40
2018-10-17T00:21:42.481Z,37.10
2018-10-17T00:24:15.204Z,36.00
2018-10-17T00:26:48.680Z,71.43
2018-10-17T00:29:21.606Z,61.93
2018-10-17T00:31:54.789Z,71.93
2018-10-17T00:34:28.425Z,37.97
2018-10-17T00:37:02.225Z,40.50
2018-10-17T00:39:35.026Z,60.10
2018-10-17T00:42:07.818Z,41.50
2018-10-17T00:44:40.791Z,36.33
2018-10-17T00:47:13.746Z,49.30
2018-10-17T00:49:46.847Z,32.97
2018-10-17T00:52:21.047Z,54.37
2018-10-17T00:54:54.061Z,53.90
2018-10-17T00:57:27.323Z,45.10
2018-10-17T01:00:01.511Z,26.93
2018-10-17T01:02:34.482Z,93.37
2018-10-17T01:05:08.911Z,37.27
2018-10-17T01:07:41.974Z,33.00
2018-10-17T01:10:15.150Z,16.53
2018-10-17T01:12:47.510Z,19.70
2018-10-17T01:15:19.775Z,47.30
2018-10-17T01:17:52.539Z,20.57
2018-10-17T01:20:24.820Z,14.93
2018-10-17T01:22:57.633Z,20.77
2018-10-17T01:25:29.907Z,18.73
2018-10-17T01:28:02.974Z,39.43
2018-10-17T01:30:35.310Z,16.60
2018-10-17T01:33:07.959Z,18.83
2018-10-17T01:35:40.303Z,22.27
2018-10-17T01:38:14.408Z,14.50
2018-10-17T01:40:46.840Z,16.37
2018-10-17T01:43:19.298Z,18.00
2018-10-17T01:45:52.027Z,17.93
2018-10-17T01:48:25.207Z,22.23
2018-10-17T01:50:57.567Z,21.23
2018-10-17T01:53:30.451Z,22.67
2018-10-17T01:56:03.007Z,19.17
2018-10-17T01:58:35.523Z,18.03
2018-10-17T02:01:08.325Z,14.53
2018-10-17T02:03:40.860Z,18.27
2018-10-17T02:06:13.675Z,19.23
2018-10-17T02:08:46.168Z,15.53
2018-10-17T02:11:18.912Z,16.80
2018-10-17T02:13:51.482Z,15.90
2018-10-17T02:16:24.582Z,19.80
2018-10-17T02:18:57.779Z,14.80
2018-10-17T02:21:30.806Z,15.80
2018-10-17T02:24:04.758Z,29.83
2018-10-17T02:26:37.975Z,16.67
2018-10-17T02:29:10.582Z,16.50
2018-10-17T02:31:43.821Z,19.33
2018-10-17T02:34:17.018Z,21.97
2018-10-17T02:36:50.047Z,18.63
2018-10-17T02:39:23.291Z,25.17
2018-10-17T02:41:56.464Z,27.30
2018-10-17T02:44:29.300Z,32.80
2018-10-17T02:47:02.520Z,32.70
2018-10-17T02:49:35.196Z,24.80
2018-10-17T02:52:07.885Z,22.00
2018-10-17T02:54:40.759Z,20.93
2018-10-17T02:57:13.756Z,17.40
2018-10-17T02:59:46.524Z,16.87
2018-10-17T03:02:19.360Z,17.07
2018-10-17T03:04:51.722Z,14.70
2018-10-17T03:07:24.077Z,17.70
2018-10-17T03:09:56.473Z,18.53
2018-10-17T03:12:29.132Z,22.07
2018-10-17T03:15:02.324Z,21.80
2018-10-17T03:17:35.362Z,25.67
2018-10-17T03:20:09.869Z,22.20
2018-10-17T03:22:42.944Z,21.37
2018-10-17T03:25:15.975Z,25.00
2018-10-17T03:27:49.227Z,21.60
2018-10-17T03:30:21.669Z,17.60
2018-10-17T03:32:54.333Z,15.93
2018-10-17T03:35:27.395Z,16.87
2018-10-17T03:37:59.676Z,30.30
2018-10-17T03:40:32.084Z,26.67
2018-10-17T03:43:05.318Z,27.63
2018-10-17T03:45:38.159Z,23.63
2018-10-17T03:48:10.611Z,20.73
2018-10-17T03:50:42.976Z,17.00
2018-10-17T03:53:15.335Z,12.73
2018-10-17T03:55:47.784Z,9.63
2018-10-17T03:58:20.076Z,9.50
2018-10-17T04:00:52.432Z,11.60
2018-10-17T04:03:24.719Z,9.40
2018-10-17T04:05:57.051Z,7.47
2018-10-17T04:08:29.620Z,6.70
2018-10-17T04:11:02.087Z,6.07
2018-10-17T04:13:34.925Z,6.97
2018-10-17T04:16:07.253Z,5.97
2018-10-17T04:18:39.566Z,5.20
2018-10-17T04:21:11.947Z,5.77
2018-10-17T04:23:44.239Z,4.63
2018-10-17T04:26:16.617Z,5.17
2018-10-17T04:28:49.261Z,7.50
2018-10-17T04:31:21.855Z,4.47
2018-10-17T04:33:54.107Z,4.60
2018-10-17T04:36:26.792Z,4.37
2018-10-17T04:38:59.648Z,3.30
2018-10-17T04:41:32.643Z,3.60
2018-10-17T04:44:05.702Z,2.93
2018-10-17T04:46:39.023Z,3.40
2018-10-17T04:49:12.478Z,2.17
2018-10-17T04:51:45.311Z,2.03
2018-10-17T04:54:18.044Z,3.00
2018-10-17T04:56:51.107Z,1.90
2018-10-17T04:59:24.051Z,3.53
2018-10-17T05:01:57.068Z,1.70
2018-10-17T05:04:29.903Z,2.00
2018-10-17T05:07:03.157Z,1.93
2018-10-17T05:09:36.847Z,2.73
2018-10-17T05:12:09.897Z,2.27
2018-10-17T05:14:43.359Z,1.87
2018-10-17T05:17:16.438Z,1.30
2018-10-17T05:19:49.464Z,1.10
2018-10-17T05:22:22.391Z,0.87
2018-10-17T05:24:55.242Z,1.00
2018-10-17T05:27:28.120Z,1.80
2018-10-17T05:30:01.328Z,1.80
2018-10-17T05:32:34.397Z,1.53
2018-10-17T05:35:07.708Z,1.33
2018-10-17T05:37:40.552Z,1.73
2018-10-17T05:40:13.777Z,3.13
2018-10-17T05:42:46.652Z,8.00
2018-10-17T05:45:19.552Z,6.83
2018-10-17T05:47:51.913Z,5.47
2018-10-17T05:50:24.836Z,5.23
2018-10-17T05:52:57.107Z,5.03
2018-10-17T05:55:29.356Z,5.07
2018-10-17T05:58:01.716Z,3.30
2018-10-17T06:00:33.968Z,5.00
2018-10-17T06:03:06.305Z,5.90
2018-10-17T06:05:38.565Z,8.17
2018-10-17T06:08:10.851Z,8.30
2018-10-17T06:10:43.181Z,7.73
2018-10-17T06:13:15.573Z,6.20
2018-10-17T06:15:48.155Z,7.60
2018-10-17T06:18:20.857Z,5.63
2018-10-17T06:20:53.699Z,6.23
2018-10-17T06:23:26.653Z,8.67
2018-10-17T06:25:59.556Z,6.83
2018-10-17T06:28:32.103Z,7.17
2018-10-17T06:31:05.135Z,5.60
2018-10-17T06:33:38.173Z,7.53
2018-10-17T06:36:11.035Z,7.33
2018-10-17T06:38:43.978Z,3.93
2018-10-17T06:41:16.827Z,5.60
2018-10-17T06:43:50.228Z,3.10
2018-10-17T06:46:22.404Z,5.50
2018-10-17T06:48:54.717Z,4.17
2018-10-17T06:51:27.612Z,3.37
2018-10-17T06:54:00.581Z,4.10
2018-10-17T06:56:33.652Z,3.27
2018-10-17T06:59:06.936Z,4.27
2018-10-17T07:01:39.762Z,3.63
2018-10-17T07:04:12.927Z,3.27
2018-10-17T07:06:45.863Z,4.63
2018-10-17T07:09:19.248Z,4.57
2018-10-17T07:11:52.513Z,4.37
2018-10-17T07:14:25.935Z,3.90
2018-10-17T07:16:58.694Z,4.47
2018-10-17T07:19:31.608Z,3.07
2018-10-17T07:22:04.196Z,3.30
2018-10-17T07:24:37.051Z,2.67
2018-10-17T07:27:10.116Z,3.13
2018-10-17T07:29:43.395Z,3.27
2018-10-17T07:32:16.166Z,3.30
2018-10-17T07:34:48.536Z,4.70
2018-10-17T07:37:21.250Z,4.83
2018-10-17T07:39:53.959Z,8.07
2018-10-17T07:42:26.533Z,6.47
2018-10-17T07:44:59.469Z,5.20
2018-10-17T07:47:32.187Z,8.07
2018-10-17T07:50:04.951Z,6.03
2018-10-17T07:52:37.843Z,9.50
2018-10-17T07:55:12.367Z,8.63
2018-10-17T07:57:44.991Z,10.13
2018-10-17T08:00:17.944Z,8.03
2018-10-17T08:02:50.630Z,11.80
2018-10-17T08:05:23.519Z,12.57
2018-10-17T08:07:56.434Z,16.57
2018-10-17T08:10:29.507Z,62.00
2018-10-17T08:13:01.765Z,46.90
2018-10-17T08:15:34.593Z,24.37
2018-10-17T08:18:08.128Z,34.70
2018-10-17T08:20:41.114Z,30.73
2018-10-17T08:23:14.075Z,34.27
2018-10-17T08:25:46.956Z,24.77
2018-10-17T08:28:19.567Z,25.80
2018-10-17T08:30:52.356Z,25.30
2018-10-17T08:33:24.744Z,29.20
2018-10-17T08:35:57.597Z,24.47
2018-10-17T08:38:30.454Z,24.87
2018-10-17T08:41:03.393Z,28.60
2018-10-17T08:43:36.416Z,33.63
2018-10-17T08:46:09.546Z,27.00
2018-10-17T08:48:42.405Z,23.60
2018-10-17T08:51:15.376Z,23.10
2018-10-17T08:53:48.320Z,39.43
2018-10-17T08:56:21.419Z,35.50
2018-10-17T08:58:54.328Z,35.10
2018-10-17T09:01:27.332Z,37.17
2018-10-17T09:04:00.442Z,23.77
2018-10-17T09:06:33.372Z,22.93
2018-10-17T09:09:06.918Z,37.83
2018-10-17T09:11:40.445Z,39.70
2018-10-17T09:14:13.659Z,27.40
2018-10-17T09:16:47.463Z,28.03
2018-10-17T09:19:20.956Z,35.80
2018-10-17T09:21:54.222Z,18.37
2018-10-17T09:24:27.084Z,22.43
2018-10-17T09:27:01.052Z,25.97
2018-10-17T09:29:33.837Z,19.53
2018-10-17T09:32:06.832Z,23.37
2018-10-17T09:34:39.761Z,21.10
2018-10-17T09:37:12.677Z,20.37
2018-10-17T09:39:45.596Z,28.80
2018-10-17T09:42:18.545Z,25.67
2018-10-17T09:44:51.268Z,24.43
2018-10-17T09:47:24.066Z,27.77
2018-10-17T09:49:56.653Z,31.73
2018-10-17T09:52:29.553Z,32.63
2018-10-17T09:55:02.284Z,27.70
2018-10-17T09:57:35.032Z,25.10
2018-10-17T10:00:13.204Z,27.73
2018-10-17T10:02:46.163Z,31.13
2018-10-17T10:05:19.173Z,27.13
2018-10-17T10:07:52.272Z,28.63
2018-10-17T10:10:24.565Z,32.47
2018-10-17T10:12:57.497Z,33.60
2018-10-17T10:15:30.312Z,25.40
2018-10-17T10:18:03.295Z,34.57
2018-10-17T10:20:36.273Z,34.20
2018-10-17T10:23:09.087Z,28.93
2018-10-17T10:25:41.919Z,28.13
2018-10-17T10:28:14.712Z,29.07
2018-10-17T10:30:47.636Z,27.57
2018-10-17T10:33:20.725Z,26.97
2018-10-17T10:35:53.789Z,22.07
2018-10-17T10:38:26.786Z,21.53
2018-10-17T10:40:59.515Z,27.40
2018-10-17T10:43:32.263Z,26.13
2018-10-17T10:46:04.899Z,19.50
2018-10-17T10:48:37.580Z,23.73
2018-10-17T10:51:10.559Z,25.77
2018-10-17T10:53:42.933Z,29.57
2018-10-17T10:56:15.546Z,50.20
2018-10-17T10:58:47.997Z,28.10
2018-10-17T11:01:20.273Z,21.33
2018-10-17T11:03:52.861Z,25.33
2018-10-17T11:06:25.094Z,30.03
2018-10-17T11:08:57.386Z,44.87
2018-10-17T11:11:29.623Z,45.03
2018-10-17T11:14:02.013Z,30.07
2018-10-17T11:16:34.314Z,43.17
2018-10-17T11:19:06.683Z,58.27
2018-10-17T11:21:39.264Z,52.87
2018-10-17T11:24:11.563Z,73.37
2018-10-17T11:26:43.772Z,59.13
2018-10-17T11:29:16.508Z,80.93
2018-10-17T11:31:49.152Z,56.17
2018-10-17T11:34:21.521Z,49.43
2018-10-17T11:36:54.063Z,36.40
2018-10-17T11:39:26.338Z,32.30
2018-10-17T11:41:58.580Z,51.57
2018-10-17T11:44:30.895Z,41.27
2018-10-17T11:47:03.227Z,59.00
2018-10-17T11:49:35.624Z,84.70
2018-10-17T11:52:07.931Z,32.97
2018-10-17T11:54:40.256Z,37.17
2018-10-17T11:57:12.825Z,48.93
2018-10-17T11:59:45.169Z,89.57
2018-10-17T12:02:17.924Z,40.17
2018-10-17T12:04:50.846Z,35.40
2018-10-17T12:07:23.556Z,36.43
2018-10-17T12:09:56.440Z,80.77
2018-10-17T12:12:29.207Z,31.07
2018-10-17T12:15:02.168Z,40.97
2018-10-17T12:17:35.460Z,37.50
2018-10-17T12:20:09.357Z,25.40
2018-10-17T12:22:43.380Z,29.13
2018-10-17T12:25:16.555Z,27.63
2018-10-17T12:27:49.626Z,29.93
2018-10-17T12:30:21.993Z,35.00
2018-10-17T12:32:54.315Z,38.07
2018-10-17T12:35:26.735Z,27.50
2018-10-17T12:37:59.300Z,31.43
2018-10-17T12:40:32.395Z,30.70
2018-10-17T12:43:05.248Z,29.07
2018-10-17T12:45:38.271Z,25.80
2018-10-17T12:48:11.154Z,24.80
2018-10-17T12:50:44.103Z,26.47
2018-10-17T12:53:16.930Z,23.53
2018-10-17T12:55:49.821Z,25.17
2018-10-17T12:58:22.281Z,20.27
2018-10-17T13:00:54.837Z,21.03
2018-10-17T13:03:27.440Z,20.23
2018-10-17T13:06:00.376Z,19.83
2018-10-17T13:08:33.342Z,17.53
2018-10-17T13:11:06.422Z,21.30
2018-10-17T13:13:39.438Z,18.27
2018-10-17T13:16:12.496Z,25.37
2018-10-17T13:18:45.361Z,20.30
2018-10-17T13:21:18.091Z,18.77
2018-10-17T13:23:51.080Z,20.07
2018-10-17T13:26:24.297Z,22.60
2018-10-17T13:28:57.166Z,21.13
2018-10-17T13:31:30.212Z,20.93
2018-10-17T13:34:02.894Z,21.90
2018-10-17T13:36:35.798Z,19.87
2018-10-17T13:39:13.496Z,20.37
2018-10-17T13:41:46.345Z,22.97
2018-10-17T13:44:18.756Z,16.80
2018-10-17T13:46:51.709Z,17.43
2018-10-17T13:49:24.838Z,16.30
2018-10-17T13:51:58.931Z,20.27
2018-10-17T13:54:32.075Z,22.17
2018-10-17T13:57:04.481Z,16.63
2018-10-17T13:59:37.010Z,18.53
2018-10-17T14:02:09.883Z,23.67
2018-10-17T14:04:42.221Z,19.50
2018-10-17T14:07:15.249Z,22.77
2018-10-17T14:09:47.572Z,14.03
2018-10-17T14:12:19.971Z,16.97
2018-10-17T14:14:53.381Z,15.30
2018-10-17T14:17:25.699Z,16.33
2018-10-17T14:19:58.204Z,25.10
2018-10-17T14:22:30.704Z,20.23
2018-10-17T14:25:03.840Z,16.77
2018-10-17T14:27:36.390Z,16.07
2018-10-17T14:30:09.601Z,15.93
2018-10-17T14:32:42.015Z,14.67
2018-10-17T14:35:14.579Z,18.00
2018-10-17T14:37:47.157Z,19.60
2018-10-17T14:40:19.758Z,28.23
2018-10-17T14:42:52.194Z,25.63
2018-10-17T14:45:24.488Z,22.83
2018-10-17T14:47:56.868Z,19.70
2018-10-17T14:50:29.718Z,19.17
2018-10-17T14:53:02.777Z,26.00
2018-10-17T14:55:35.129Z,25.30
2018-10-17T14:58:07.488Z,16.67
2018-10-17T15:00:39.859Z,16.00
2018-10-17T15:03:12.357Z,12.87
2018-10-17T15:05:44.679Z,14.53
2018-10-17T15:08:17.102Z,16.37
2018-10-17T15:10:49.518Z,13.77
2018-10-17T15:13:21.941Z,15.17
2018-10-17T15:15:55.449Z,12.33
2018-10-17T15:18:28.701Z,13.43
2018-10-17T15:21:01.864Z,13.33
2018-10-17T15:23:34.492Z,13.93
2018-10-17T15:26:07.711Z,13.27
2018-10-17T15:28:40.650Z,17.57
2018-10-17T15:31:13.470Z,23.97
2018-10-17T15:33:46.672Z,20.07
2018-10-17T15:36:20.590Z,16.67
2018-10-17T15:38:53.851Z,18.57
2018-10-17T15:41:27.473Z,16.37
2018-10-17T15:43:59.850Z,17.90
2018-10-17T15:49:23.687Z,120.90
2018-10-17T15:51:56.479Z,16.40
2018-10-17T15:54:29.906Z,23.00
2018-10-17T15:57:02.996Z,28.63
2018-10-17T15:59:36.540Z,26.33
2018-10-17T16:02:10.243Z,28.37
2018-10-17T16:04:43.217Z,108.27
2018-10-17T16:07:16.393Z,26.53
2018-10-17T16:09:49.913Z,34.03
2018-10-17T16:12:22.580Z,22.30
2018-10-17T16:14:55.888Z,22.10
2018-10-17T16:17:28.520Z,35.67
2018-10-17T16:20:01.787Z,21.53
2018-10-17T16:22:35.033Z,16.03
2018-10-17T16:25:08.596Z,9.53
2018-10-17T16:27:42.808Z,9.73
2018-10-17T16:30:15.769Z,10.30
2018-10-17T16:32:49.065Z,10.73
2018-10-17T16:35:23.740Z,17.40
2018-10-17T16:38:07.732Z,20.13
2018-10-17T16:40:41.199Z,16.13
2018-10-17T16:43:14.183Z,19.77
2018-10-17T16:45:47.740Z,15.10
2018-10-17T16:48:20.828Z,12.70
2018-10-17T16:50:54.152Z,8.77
2018-10-17T16:53:27.896Z,7.90
2018-10-17T16:56:01.239Z,8.17
2018-10-17T16:58:34.214Z,9.17
2018-10-17T17:01:07.333Z,8.53
2018-10-17T17:03:41.145Z,9.13
2018-10-17T17:06:14.242Z,16.40
2018-10-17T17:08:47.712Z,15.30
2018-10-17T17:11:20.644Z,10.50
2018-10-17T17:13:52.920Z,19.00
2018-10-17T17:16:27.208Z,18.70
2018-10-17T17:19:00.351Z,18.03
2018-10-17T17:21:32.856Z,29.13
2018-10-17T17:24:05.208Z,24.70
2018-10-17T17:26:39.032Z,20.60
2018-10-17T17:29:12.861Z,20.00
2018-10-17T17:31:45.957Z,15.37
2018-10-17T17:34:18.630Z,20.03
2018-10-17T17:36:51.595Z,15.87
2018-10-17T17:39:23.923Z,16.10
2018-10-17T17:41:56.973Z,16.47
2018-10-17T17:44:30.364Z,18.23
2018-10-17T17:47:02.879Z,18.33
2018-10-17T17:49:35.815Z,12.37
2018-10-17T17:52:08.946Z,11.40
2018-10-17T17:54:42.155Z,39.63
2018-10-17T17:57:14.600Z,19.60
2018-10-17T17:59:47.998Z,23.20
2018-10-17T18:02:21.699Z,18.33
2018-10-17T18:04:54.267Z,17.63
2018-10-17T18:07:27.789Z,14.73
2018-10-17T18:10:01.245Z,14.97
2018-10-17T18:12:35.700Z,14.53
2018-10-17T18:15:08.937Z,12.57
2018-10-17T18:17:42.457Z,13.40
2018-10-17T18:20:16.559Z,14.67
2018-10-17T18:22:49.127Z,15.47
2018-10-17T18:25:22.492Z,13.13
2018-10-17T18:27:56.714Z,13.33
2018-10-17T18:30:30.382Z,12.93
2018-10-17T18:33:03.980Z,13.77
2018-10-17T18:35:37.251Z,13.77
2018-10-17T18:38:09.868Z,13.50
2018-10-17T18:40:42.440Z,13.27
2018-10-17T18:43:14.979Z,12.00
2018-10-17T18:45:47.408Z,12.23
2018-10-17T18:48:20.030Z,14.07
2018-10-17T18:50:52.954Z,14.20
2018-10-17T18:53:25.613Z,12.00
2018-10-17T18:55:58.912Z,12.43
2018-10-17T18:58:32.496Z,14.03
2018-10-17T19:01:04.975Z,11.57
2018-10-17T19:03:38.084Z,12.33
2018-10-17T19:06:11.166Z,12.90
2018-10-17T19:08:43.572Z,12.63
2018-10-17T19:11:16.096Z,13.47
2018-10-17T19:13:48.609Z,12.77
2018-10-17T19:16:21.056Z,10.83
2018-10-17T19:18:54.415Z,11.50
2018-10-17T19:21:26.869Z,14.00
2018-10-17T19:24:00.759Z,13.73
2018-10-17T19:26:34.019Z,12.90
2018-10-17T19:29:07.317Z,11.97
2018-10-17T19:31:40.424Z,12.33
2018-10-17T19:34:13.336Z,12.10
2018-10-17T19:36:46.260Z,12.10
2018-10-17T19:39:19.516Z,12.63
2018-10-17T19:41:53.509Z,11.97
2018-10-17T19:44:27.483Z,12.03
2018-10-17T19:46:59.976Z,18.47
2018-10-17T19:49:32.860Z,11.83
2018-10-17T19:52:06.124Z,21.27
2018-10-17T19:54:38.624Z,14.13
2018-10-17T19:57:11.443Z,9.80
2018-10-17T19:59:44.247Z,30.10
2018-10-17T20:02:17.264Z,7.63
2018-10-17T20:04:49.852Z,11.40
2018-10-17T20:07:23.299Z,8.70
2018-10-17T20:09:56.647Z,13.23
2018-10-17T20:12:31.055Z,14.30
2018-10-17T20:15:04.078Z,12.33
2018-10-17T20:17:37.154Z,13.40
2018-10-17T20:20:10.405Z,13.87
2018-10-17T20:22:43.259Z,30.47
2018-10-17T20:25:17.385Z,15.43
2018-10-17T20:27:50.320Z,15.43
2018-10-17T20:30:26.020Z,11.63
2018-10-17T20:32:59.797Z,12.70
2018-10-17T20:35:32.248Z,17.73
2018-10-17T20:38:04.567Z,9.53
2018-10-17T20:40:39.670Z,29.07
2018-10-17T20:43:12.552Z,9.10
2018-10-17T20:45:46.858Z,6.50
2018-10-17T20:48:19.472Z,5.50
2018-10-17T20:50:53.196Z,4.53
2018-10-17T20:53:31.969Z,5.07
2018-10-17T20:56:05.064Z,5.33
2018-10-17T20:58:38.049Z,5.40
2018-10-17T21:01:12.163Z,6.87
2018-10-17T21:03:49.580Z,2.83
2018-10-17T21:06:22.905Z,6.60
2018-10-17T21:08:56.330Z,4.23
2018-10-17T21:11:29.253Z,3.10
2018-10-17T21:14:03.031Z,3.60
2018-10-17T21:16:36.452Z,6.90
2018-10-17T21:19:09.744Z,6.73
2018-10-17T21:21:46.658Z,5.87
2018-10-17T21:24:19.526Z,4.23
2018-10-17T21:26:52.708Z,4.77
2018-10-17T21:29:25.044Z,7.17
2018-10-17T21:31:57.473Z,6.73
2018-10-17T21:34:31.127Z,12.23
2018-10-17T21:37:03.584Z,11.03
2018-10-17T21:39:36.409Z,9.23
2018-10-17T21:42:08.791Z,12.40
2018-10-17T21:44:41.893Z,10.17
2018-10-17T21:47:14.443Z,10.63
2018-10-17T21:49:46.977Z,8.87
2018-10-17T21:52:19.475Z,8.63
2018-10-17T21:54:52.349Z,6.90
2018-10-17T21:57:25.004Z,6.87
2018-10-17T21:59:57.282Z,7.80
2018-10-17T22:02:29.872Z,10.00
2018-10-17T22:05:02.166Z,13.73
2018-10-17T22:07:34.529Z,11.10
2018-10-17T22:10:08.329Z,14.27
2018-10-17T22:12:40.806Z,9.23
2018-10-17T22:15:13.492Z,14.20
2018-10-17T22:17:45.873Z,7.87
2018-10-17T22:20:18.326Z,16.27
2018-10-17T22:22:51.096Z,9.63
2018-10-17T22:25:23.795Z,9.07
2018-10-17T22:27:56.784Z,8.00
2018-10-17T22:30:29.157Z,20.90
2018-10-17T22:33:01.700Z,8.93
2018-10-17T22:35:34.332Z,8.07
2018-10-17T22:38:07.247Z,11.70
2018-10-17T22:40:40.203Z,10.10
2018-10-17T22:43:12.536Z,8.03
2018-10-17T22:45:44.895Z,8.17
2018-10-17T22:48:18.304Z,13.93
2018-10-17T22:50:52.237Z,4.83
2018-10-17T22:53:24.599Z,8.77
2018-10-17T22:55:57.067Z,7.50
2018-10-17T22:58:29.623Z,5.50
2018-10-17T23:01:02.851Z,8.53
2018-10-17T23:03:35.306Z,10.93
2018-10-17T23:06:08.605Z,12.53
2018-10-17T23:08:41.456Z,8.57
2018-10-17T23:11:15.475Z,9.53
2018-10-17T23:13:48.504Z,13.90
2018-10-17T23:16:21.323Z,12.60
2018-10-17T23:18:53.711Z,9.60
2018-10-17T23:21:25.907Z,8.87
2018-10-17T23:23:58.755Z,13.13
2018-10-17T23:26:31.365Z,6.90
2018-10-17T23:29:03.657Z,11.70
2018-10-17T23:31:35.953Z,10.40
2018-10-17T23:34:08.351Z,10.97
2018-10-17T23:36:40.770Z,13.50
2018-10-17T23:39:13.627Z,13.60
2018-10-17T23:41:45.896Z,9.67
2018-10-17T23:44:19.154Z,7.53
2018-10-17T23:46:52.104Z,7.47
2018-10-17T23:49:24.441Z,8.67
2018-10-17T23:51:56.666Z,8.80
2018-10-17T23:54:29.006Z,11.93
2018-10-17T23:57:01.480Z,11.73
2018-10-17T23:59:33.793Z,12.50
